Silver Gate, MT

6:17 PM MDT on August 30, 2015 (GMT -0600)
Yellowstone | | Change Station
CLOSE
Current Station
Airport
Location: Yellowstone,
Elevation: 7835 ft
Nearby Weather Stations
Active Advisory: Fire Weather Warning

Elev 7835 ft 44.54 °N, 110.42 °W | Updated 21 minutes ago

Partly Cloudy
Partly Cloudy
64 °F
Feels Like 64 °F
N
7
Wind Variable Wind from Variable
Gusts 23 mph

Today
High -- | Low -- °F
--% Chance of Precip.
Yesterday
High -- | Low -- °F
Precip. -- in
6:40 AM 8:02 PM
Full, 98% visible
Pressure 29.92 in
Visibility -9999.0 miles
Clouds
Dew Point 35 °F
Humidity 34%
Rainfall 0.09 in
Snow Depth Not available.
UV Not available.
Pollen 9.10 out of 12
Air Quality Not available.
Flu Activity Not available.
METAR KP60 302356Z AUTO VRB06G20KT 18/02 A3014 RMK AO1 SLP131 T01780017 10194 20161 56009 $
Pressure 29.92 in
Visibility -9999.0 miles
Clouds
Dew Point 35 °F
Humidity 34%
Rainfall 0.09 in
Snow Depth Not available.
UV Not available.
Pollen 9.10 out of 12
Air Quality Not available.
Flu Activity Not available.
METAR KP60 302356Z AUTO VRB06G20KT 18/02 A3014 RMK AO1 SLP131 T01780017 10194 20161 56009 $

10-Day Weather Forecast

×

Almanac

Astronomy

Aug. 30, 2015 Rise Set
Actual Time
Civil Twilight
Nautical Twilight
Astronomical Twilight
Moon
Length of Visible Light
Length of Day
Tomorrow will be .
, % of the Moon is Illuminated

Today's Extremes

State Highs State Lows

Community

WunderPhotos

Upload Photos

1,851,100 photos uploaded!

WunderBlogs® & News

Nearby

Air Quality

  Air Quality AQ Index Pollutant
Not available.

Snow Depth

Station Depth Elevation

Earthquake Activity

City Distance Mag. Time & Date
Minimum magnitude displayed is 2.5.

Coastal Water Temperatures

Place Temperature

Stations

Nearby Weather Stations

Station Location Temp. Windchill Dew Point Humidity Wind Precip. Elev Updated Type
                   
Fire Weather Warning
Statement as of 3:19 PM MDT on August 30, 2015

... Red flag warning remains in effect until midnight MDT tonight...

* impacts: low humidities... very warm temperatures... and gusty
winds will create critical fire weather conditions through this
evening. A wind shift with a strong cold front this evening
could cause fires to grow rapidly and erratically.

* Affected area:
   in south central Mt... fire weather zones 123... 124... 125... 126...
   127 and 128.

* Counties affected:
   in central Mt... Golden Valley... Musselshell... Wheatland.
   In south central Mt... Carbon... park... Stillwater... Sweet Grass
                         Yellowstone.
   In southwest Mt... Gallatin.

* Wind: southwest 20 to 30 mph with gusts up to 40 mph... shifting
to the west or northwest with gusts to 45 mph this evening.

* Humidity: 18 to 23 percent.

* Temperatures: from the mid 80s to the lower 90s.

Precautionary/preparedness actions...

Obey local fire restrictions and be very careful with any activity
that could spark a fire.